Cap-de-la-Madeleine, Canada
Current Conditions -  °F | °C
As of 11:00 AM on Wednesday 28 Jan 2015 (Local Time) from CYRQ Reporting Station
Clear Clear  
Wind Chill: -20°   Ceiling: Unl
Heat Index: -12°   Visibility: 9mi
Dew Point: -25°   Wind: 12mph
Humidity: 34%   Direction: 350°N
Pressure: 30.13"   Gusts: NA
Location:  46.38°N, 72.55°W
Report Text: CYRQ 281600Z AUTO 35010KT 9SM CLR M12/M25 A3013 RMK SLP210
Loading
Personal Weather Stations






























Interactive Weather Map New forecast layout! Learn more

10-Day Weather Forecast

Advertisements
Track Severe Weather on mobile